createdAt,value
2023-04-17T00:00:01.634Z,0
2023-04-17T00:05:01.627Z,0
2023-04-17T00:10:01.634Z,0
2023-04-17T00:15:01.737Z,0
2023-04-17T00:20:01.606Z,0
2023-04-17T00:25:01.588Z,0
2023-04-17T00:30:01.571Z,0.019
2023-04-17T00:35:01.646Z,0.042
2023-04-17T00:40:01.594Z,0
2023-04-17T00:45:01.636Z,0
2023-04-17T00:50:01.679Z,0
2023-04-17T00:55:01.639Z,0
2023-04-17T01:00:01.729Z,0
2023-04-17T01:05:01.824Z,0
2023-04-17T01:10:01.711Z,0
2023-04-17T01:15:01.618Z,0
2023-04-17T01:20:01.807Z,0
2023-04-17T01:25:01.653Z,0
2023-04-17T01:30:01.772Z,0
2023-04-17T01:35:01.932Z,0
2023-04-17T01:40:01.861Z,0.003
2023-04-17T01:45:01.796Z,0
2023-04-17T01:50:01.865Z,0
2023-04-17T01:55:01.799Z,0
2023-04-17T02:00:01.816Z,0
2023-04-17T02:05:01.843Z,0
2023-04-17T02:10:01.721Z,0.081
2023-04-17T02:15:01.724Z,0.127
2023-04-17T02:20:01.658Z,0.124
2023-04-17T02:25:01.726Z,0.131
2023-04-17T02:30:01.684Z,0.171
2023-04-17T02:35:01.813Z,0.171
2023-04-17T02:40:01.768Z,0.15
2023-04-17T02:45:01.771Z,0.113
2023-04-17T02:50:01.789Z,0.063
2023-04-17T02:55:01.808Z,0
2023-04-17T03:00:01.837Z,0
2023-04-17T03:05:01.829Z,0
2023-04-17T03:10:01.906Z,0
2023-04-17T03:15:01.753Z,0
2023-04-17T03:20:01.776Z,0
2023-04-17T03:25:01.837Z,0.084
2023-04-17T03:30:01.715Z,0.126
2023-04-17T03:35:01.812Z,0.124
2023-04-17T03:40:01.945Z,0.123
2023-04-17T03:45:01.989Z,0.123
2023-04-17T03:50:02.020Z,0.123
2023-04-17T03:55:01.885Z,0.116
2023-04-17T04:00:02.071Z,0.146
2023-04-17T04:05:01.938Z,0.083
2023-04-17T04:10:01.870Z,0
2023-04-17T04:15:01.819Z,0
2023-04-17T04:20:01.777Z,14.385
2023-04-17T04:25:01.784Z,40.289
2023-04-17T04:30:01.885Z,49.561
2023-04-17T04:35:01.939Z,104.293
2023-04-17T04:40:02.044Z,158.066
2023-04-17T04:45:01.833Z,207.786
2023-04-17T04:50:01.840Z,266.195
2023-04-17T04:55:01.825Z,286.072
2023-04-17T05:00:01.852Z,259.644
2023-04-17T05:05:02.000Z,252.71800000000002
2023-04-17T05:10:01.862Z,287.206
2023-04-17T05:15:01.899Z,391.915
2023-04-17T05:20:01.830Z,488.438
2023-04-17T05:25:02.131Z,577.296
2023-04-17T05:30:02.146Z,642.214
2023-04-17T05:35:02.058Z,656.36
2023-04-17T05:40:01.970Z,702.099
2023-04-17T05:45:01.959Z,758.568
2023-04-17T05:50:01.984Z,794.063
2023-04-17T05:55:01.927Z,757.088
2023-04-17T06:00:01.953Z,728.751
2023-04-17T06:05:02.182Z,784.331
2023-04-17T06:10:02.080Z,828.2330000000001
2023-04-17T06:15:01.919Z,866.123
2023-04-17T06:20:01.879Z,887.336
2023-04-17T06:25:01.916Z,856.477
2023-04-17T06:30:01.888Z,1041.362
2023-04-17T06:35:02.019Z,1161.2060000000001
2023-04-17T06:40:01.990Z,1165.7830000000001
2023-04-17T06:45:02.004Z,1102.9750000000001
2023-04-17T06:50:01.940Z,2047.796
2023-04-17T06:55:01.982Z,2658.996
2023-04-17T07:00:01.963Z,2804.728
2023-04-17T07:05:01.978Z,2956.801
2023-04-17T07:10:01.988Z,3136.549
2023-04-17T07:15:02.160Z,3296.577
2023-04-17T07:20:02.099Z,3448.917
2023-04-17T07:25:02.109Z,3603.478
2023-04-17T07:30:02.074Z,3770.3940000000002
2023-04-17T07:35:02.103Z,3937.036
2023-04-17T07:40:02.172Z,4109.932
2023-04-17T07:45:01.990Z,4269.345
2023-04-17T07:50:02.021Z,4423.402
2023-04-17T07:55:02.218Z,4555.1
2023-04-17T08:00:02.122Z,4688.793
2023-04-17T08:05:02.109Z,4857.2080000000005
2023-04-17T08:10:02.024Z,4998.8820000000005
2023-04-17T08:15:02.119Z,5140.052
2023-04-17T08:20:02.029Z,5194.886
2023-04-17T08:25:02.066Z,5393.116
2023-04-17T08:30:02.098Z,5576.1410000000005
2023-04-17T08:35:02.057Z,5703.909000000001
2023-04-17T08:40:02.098Z,5827.688
2023-04-17T08:45:02.087Z,5964.802
2023-04-17T08:50:02.006Z,6094.795
2023-04-17T08:55:02.103Z,6208.536
2023-04-17T09:00:02.141Z,6318.787
2023-04-17T09:05:02.191Z,6401.247
2023-04-17T09:10:02.077Z,6511.432
2023-04-17T09:15:02.063Z,6642.098
2023-04-17T09:20:02.118Z,6762.894
2023-04-17T09:25:02.070Z,6824.202
2023-04-17T09:30:02.072Z,6775.2480000000005
2023-04-17T09:35:02.109Z,6884.636
2023-04-17T09:40:02.117Z,6948.621
2023-04-17T09:45:02.108Z,7029.253
2023-04-17T09:50:02.190Z,7099.369000000001
2023-04-17T09:55:02.198Z,7221.036
2023-04-17T10:00:02.114Z,7274.4310000000005
2023-04-17T10:05:02.118Z,7327.195
2023-04-17T10:10:02.257Z,7353.72
2023-04-17T10:15:02.100Z,7353.397
2023-04-17T10:20:02.134Z,7404.978
2023-04-17T10:25:02.114Z,7513.926
2023-04-17T10:30:02.210Z,7544.357
2023-04-17T10:35:02.256Z,7565.433
2023-04-17T10:40:02.536Z,7598.455
2023-04-17T10:45:02.107Z,7632.358
2023-04-17T10:50:02.146Z,7699.79
2023-04-17T10:55:02.202Z,7723.647
2023-04-17T11:00:02.144Z,7698.795
2023-04-17T11:05:02.223Z,7730.129
2023-04-17T11:10:02.152Z,7768.116
2023-04-17T11:15:02.369Z,7860.125
2023-04-17T11:20:02.274Z,7884.997
2023-04-17T11:25:02.185Z,7916.784000000001
2023-04-17T11:30:02.158Z,7440.492
2023-04-17T11:35:02.313Z,7772.2880000000005
2023-04-17T11:40:02.290Z,7967.3150000000005
2023-04-17T11:45:04.146Z,6641.175
2023-04-17T11:50:02.195Z,7947.916
2023-04-17T11:55:02.164Z,7938.55
2023-04-17T12:00:02.233Z,7880.753000000001
2023-04-17T12:05:02.472Z,8003.253000000001
2023-04-17T12:10:02.322Z,8092.915
2023-04-17T12:15:02.239Z,6958.381
2023-04-17T12:20:02.237Z,5897.7210000000005
2023-04-17T12:25:02.253Z,8228.898000000001
2023-04-17T12:30:02.301Z,5475.964
2023-04-17T12:35:02.252Z,3450.605
2023-04-17T12:40:02.279Z,2731.88
2023-04-17T12:45:02.230Z,2740.025
2023-04-17T12:50:02.250Z,4174.084
2023-04-17T12:55:02.301Z,3285.994
2023-04-17T13:00:02.254Z,5159.207
2023-04-17T13:05:02.284Z,6456.522
2023-04-17T13:10:02.251Z,7784.793000000001
2023-04-17T13:15:02.408Z,7493.713
2023-04-17T13:20:02.270Z,7305.9890000000005
2023-04-17T13:25:02.260Z,7185.205
2023-04-17T13:30:02.289Z,7081.437
2023-04-17T13:35:02.377Z,6923.518
2023-04-17T13:40:02.320Z,6866.942
2023-04-17T13:45:02.351Z,6754.448
2023-04-17T13:50:02.328Z,6671.734
2023-04-17T13:55:02.325Z,6560.12
2023-04-17T14:00:02.266Z,6511.434
2023-04-17T14:05:02.485Z,6397.031
2023-04-17T14:10:02.435Z,6250.8640000000005
2023-04-17T14:15:02.325Z,6148.087
2023-04-17T14:20:02.365Z,6040.188
2023-04-17T14:25:02.363Z,5938.96
2023-04-17T14:30:02.425Z,5826.466
2023-04-17T14:35:02.519Z,5695.242
2023-04-17T14:40:02.380Z,5559.946
2023-04-17T14:45:02.350Z,5460.424
2023-04-17T14:50:02.380Z,5319.404
2023-04-17T14:55:02.378Z,5194.329
2023-04-17T15:00:02.421Z,5077.186
2023-04-17T15:05:02.454Z,4888.967000000001
2023-04-17T15:10:02.373Z,4747.106
2023-04-17T15:15:02.379Z,4588.485
2023-04-17T15:20:02.383Z,4441.081
2023-04-17T15:25:02.343Z,4296.296
2023-04-17T15:30:02.390Z,4124.731
2023-04-17T15:35:02.379Z,3977.982
2023-04-17T15:40:02.402Z,3826.2490000000003
2023-04-17T15:45:02.393Z,3720.897
2023-04-17T15:50:02.442Z,3565.5260000000003
2023-04-17T15:55:02.421Z,3319.306
2023-04-17T16:00:02.453Z,3127.26
2023-04-17T16:05:02.424Z,2984.0460000000003
2023-04-17T16:10:02.496Z,2810.549
2023-04-17T16:15:02.428Z,2629.3160000000003
2023-04-17T16:20:02.461Z,2451.44
2023-04-17T16:25:02.414Z,2270.617
2023-04-17T16:30:02.496Z,2107.703
2023-04-17T16:35:02.478Z,1953.829
2023-04-17T16:40:02.448Z,1783.1200000000001
2023-04-17T16:45:02.470Z,1606.8
2023-04-17T16:50:02.533Z,1418.568
2023-04-17T16:55:02.514Z,1246.179
2023-04-17T17:00:02.509Z,1118.297
2023-04-17T17:05:02.548Z,988.355
2023-04-17T17:10:02.563Z,841.626
2023-04-17T17:15:02.585Z,682.147
2023-04-17T17:20:02.615Z,540.715
2023-04-17T17:25:02.699Z,451.125
2023-04-17T17:30:02.598Z,360.077
2023-04-17T17:35:02.638Z,270.524
2023-04-17T17:40:02.631Z,198.42600000000002
2023-04-17T17:45:02.596Z,143.561
2023-04-17T17:50:02.596Z,103.057
2023-04-17T17:55:02.700Z,68.671
2023-04-17T18:00:02.703Z,46.397
2023-04-17T18:05:02.707Z,32.626
2023-04-17T18:10:02.592Z,34.074
2023-04-17T18:15:02.629Z,12.427
2023-04-17T18:20:02.594Z,0.078
2023-04-17T18:25:02.557Z,0.079
2023-04-17T18:30:02.633Z,0.081
2023-04-17T18:35:02.661Z,0.426
2023-04-17T18:40:02.633Z,0.607
2023-04-17T18:45:02.607Z,0.612
2023-04-17T18:50:02.574Z,0.6980000000000001
2023-04-17T18:55:02.589Z,0.747
2023-04-17T19:00:02.561Z,0.752
2023-04-17T19:05:02.951Z,0.742
2023-04-17T19:10:02.597Z,0.754
2023-04-17T19:15:02.659Z,0.778
2023-04-17T19:20:02.593Z,0.684
2023-04-17T19:25:02.571Z,0.619
2023-04-17T19:30:02.593Z,0.606
2023-04-17T19:35:02.673Z,0.797
2023-04-17T19:40:04.483Z,0.646
2023-04-17T19:45:02.603Z,0.545
2023-04-17T19:50:02.656Z,0.656
2023-04-17T19:55:02.626Z,0.654
2023-04-17T20:00:02.575Z,0.6880000000000001
2023-04-17T20:05:02.638Z,0.628
2023-04-17T20:10:02.636Z,0.636
2023-04-17T20:15:02.656Z,0.612
2023-04-17T20:20:02.626Z,0.638
2023-04-17T20:25:02.721Z,0.645
2023-04-17T20:30:02.782Z,0.672
2023-04-17T20:35:02.727Z,0.655
2023-04-17T20:40:02.643Z,0.654
2023-04-17T20:45:02.831Z,0.654
2023-04-17T20:50:02.664Z,0.634
2023-04-17T20:55:02.817Z,0.687
2023-04-17T21:00:02.770Z,0.808
2023-04-17T21:05:02.856Z,1.2750000000000001
2023-04-17T21:10:02.830Z,1.9160000000000001
2023-04-17T21:15:02.717Z,2.072
2023-04-17T21:20:02.739Z,2.195
2023-04-17T21:25:02.710Z,1.229
2023-04-17T21:30:02.670Z,1.245
2023-04-17T21:35:02.699Z,1.322
2023-04-17T21:40:02.766Z,1.248
2023-04-17T21:45:02.747Z,1.141
2023-04-17T21:50:02.722Z,0.381
2023-04-17T21:55:03.296Z,0
2023-04-17T22:00:02.764Z,0
2023-04-17T22:05:02.883Z,0
2023-04-17T22:10:02.745Z,0
2023-04-17T22:15:02.804Z,0
2023-04-17T22:20:02.826Z,0
2023-04-17T22:25:02.777Z,0
2023-04-17T22:30:02.766Z,0.021
2023-04-17T22:35:02.749Z,0.015
2023-04-17T22:40:02.707Z,0.045
2023-04-17T22:45:02.753Z,0.025
2023-04-17T22:50:02.806Z,0.015
2023-04-17T22:55:02.789Z,0.084
2023-04-17T23:00:02.800Z,0.05
2023-04-17T23:05:02.857Z,0
2023-04-17T23:10:02.774Z,0
2023-04-17T23:15:02.842Z,0.051000000000000004
2023-04-17T23:20:02.779Z,0.158
2023-04-17T23:25:02.977Z,0.162
2023-04-17T23:30:02.817Z,0.159
2023-04-17T23:35:03.070Z,0.108
2023-04-17T23:40:02.896Z,0.107
2023-04-17T23:45:02.938Z,0.099
2023-04-17T23:50:02.972Z,0.107
2023-04-17T23:55:02.984Z,0.11
